Time;durP1;ratioP1;P1;durP2;ratioP2;P2;SDS_P1;SDS_P2;PMS_P1;PMS_P2;Temp;Humidity;BMP_temperature;BMP_pressure;BME280_temperature;BME280_humidity;BME280_pressure;Samples;Min_cycle;Max_cycle;Signal;HPM_P1;HPM_P2
2022/12/31 17:11:38;;;;;;;5.25;4.80;;;15.50;99.90;;;;;;5116362;27;1201961;-61
2022/12/31 17:14:12;;;;;;;4.77;4.37;;;15.60;99.90;;;;;;5138310;28;20202;-62
2022/12/31 17:16:45;;;;;;;5.83;4.80;;;15.90;99.90;;;;;;5139020;28;20901;-62
2022/12/31 17:19:32;;;;;;;4.67;4.27;;;16.20;99.90;;;;;;5138649;28;20435;-68
2022/12/31 17:21:58;;;;;;;5.67;5.17;;;16.50;99.90;;;;;;5121446;28;20437;-69
2022/12/31 17:24:26;;;;;;;4.83;4.30;;;16.70;99.90;;;;;;5120653;28;20456;-69
2022/12/31 17:27:02;;;;;;;5.27;4.77;;;16.90;99.90;;;;;;5120608;28;20837;-67
2022/12/31 17:29:30;;;;;;;111.87;95.70;;;17.00;99.90;;;;;;5120949;28;20471;-69
2022/12/31 17:32:03;;;;;;;36.07;32.37;;;17.10;99.90;;;;;;5120475;28;20915;-64
2022/12/31 17:34:57;;;;;;;11.67;10.43;;;17.20;99.90;;;;;;5163022;27;21009;-64
2022/12/31 17:37:27;;;;;;;13.90;12.60;;;17.30;99.90;;;;;;5142160;27;20440;-64
2022/12/31 17:39:57;;;;;;;8.40;7.60;;;17.30;99.90;;;;;;5133591;28;20469;-65
2022/12/31 17:42:31;;;;;;;164.60;152.47;;;17.40;99.90;;;;;;5120935;28;20440;-64
2022/12/31 17:45:01;;;;;;;18.27;16.87;;;17.40;99.90;;;;;;5122232;28;20424;-65
2022/12/31 17:47:37;;;;;;;11.63;10.63;;;17.40;99.90;;;;;;5122345;28;20440;-64
2022/12/31 17:50:20;;;;;;;9.80;7.50;;;17.40;99.90;;;;;;5121342;28;20473;-65
2022/12/31 17:52:47;;;;;;;7.43;5.53;;;17.40;99.90;;;;;;5113402;28;20433;-65
2022/12/31 17:55:15;;;;;;;12.63;10.67;;;17.40;99.90;;;;;;5114082;28;20485;-65
2022/12/31 17:57:49;;;;;;;12.50;11.20;;;17.30;99.90;;;;;;5113848;28;20456;-64
2022/12/31 18:00:18;;;;;;;62.73;57.43;;;17.30;99.90;;;;;;5114404;28;20879;-64
2022/12/31 18:02:45;;;;;;;17.13;15.10;;;17.30;99.90;;;;;;5114798;28;21002;-64
2022/12/31 18:05:15;;;;;;;66.03;53.70;;;17.20;99.90;;;;;;5113815;28;20501;-64
2022/12/31 18:07:43;;;;;;;8.10;7.50;;;17.20;99.90;;;;;;5114776;28;20455;-64
2022/12/31 18:10:12;;;;;;;5.27;4.77;;;17.20;99.90;;;;;;5113710;28;20877;-64
2022/12/31 18:12:39;;;;;;;4.77;4.33;;;17.20;99.90;;;;;;5113761;28;20440;-65
2022/12/31 18:15:07;;;;;;;10.40;9.60;;;17.20;99.90;;;;;;5113085;28;20505;-64
2022/12/31 18:17:34;;;;;;;6.30;5.90;;;17.10;99.90;;;;;;5112924;28;20448;-64
2022/12/31 18:20:01;;;;;;;4.67;4.33;;;17.10;99.90;;;;;;5112592;28;20476;-65
2022/12/31 18:22:27;;;;;;;4.50;4.20;;;17.10;99.90;;;;;;5112622;28;20449;-65
2022/12/31 18:24:55;;;;;;;4.90;4.60;;;17.00;99.90;;;;;;5112468;28;20444;-65
2022/12/31 18:27:22;;;;;;;3.97;3.60;;;17.00;99.90;;;;;;5112395;28;20437;-65
2022/12/31 18:29:48;;;;;;;4.60;4.20;;;17.00;99.90;;;;;;5112830;28;20472;-65
2022/12/31 18:32:20;;;;;;;3.87;3.60;;;17.00;99.90;;;;;;5112788;28;20918;-65
2022/12/31 18:34:47;;;;;;;5.30;4.90;;;17.10;99.90;;;;;;5112512;28;20472;-65
2022/12/31 18:37:14;;;;;;;6.10;5.50;;;17.10;99.90;;;;;;5112499;28;20448;-64
2022/12/31 18:39:41;;;;;;;9.47;8.57;;;17.10;99.90;;;;;;5113414;28;20469;-65
2022/12/31 18:42:12;;;;;;;4.23;3.90;;;17.10;99.90;;;;;;5113598;28;20457;-63
2022/12/31 18:44:38;;;;;;;5.20;4.70;;;17.10;99.90;;;;;;5108290;28;20450;-67
2022/12/31 18:47:09;;;;;;;6.73;5.47;;;17.10;99.90;;;;;;5097649;28;20449;-65
2022/12/31 18:49:36;;;;;;;5.97;5.47;;;17.00;99.90;;;;;;5097613;28;20555;-66
2022/12/31 18:52:03;;;;;;;6.00;4.80;;;17.00;99.90;;;;;;5098063;28;20540;-65
2022/12/31 18:54:30;;;;;;;5.80;5.20;;;16.90;99.90;;;;;;5097920;28;20538;-63
2022/12/31 18:56:56;;;;;;;6.70;6.20;;;16.90;99.90;;;;;;5097958;28;20502;-64
2022/12/31 18:59:24;;;;;;;7.77;7.17;;;16.90;99.90;;;;;;5097362;28;20847;-64
2022/12/31 19:01:51;;;;;;;10.30;7.70;;;16.90;99.90;;;;;;5097557;28;20457;-63
2022/12/31 19:04:19;;;;;;;8.87;8.03;;;16.90;99.90;;;;;;5097558;28;20451;-64
2022/12/31 19:06:46;;;;;;;9.33;8.30;;;16.90;99.90;;;;;;5097326;28;20631;-63
2022/12/31 19:09:13;;;;;;;9.00;8.10;;;16.80;99.90;;;;;;5097656;28;20433;-63
2022/12/31 19:11:41;;;;;;;8.90;8.00;;;16.80;99.90;;;;;;5097088;28;21012;-66
2022/12/31 19:14:15;;;;;;;9.57;8.50;;;16.80;99.90;;;;;;5096566;28;20469;-65
2022/12/31 19:16:43;;;;;;;7.93;6.50;;;16.80;99.90;;;;;;5096636;28;20442;-67
2022/12/31 19:19:09;;;;;;;6.53;5.93;;;16.70;99.90;;;;;;5097379;28;20449;-71
2022/12/31 19:21:36;;;;;;;8.23;7.50;;;16.80;99.90;;;;;;5097705;28;20461;-70
2022/12/31 19:24:03;;;;;;;8.70;7.70;;;16.80;99.90;;;;;;5096831;28;20445;-69
2022/12/31 19:26:30;;;;;;;10.00;8.43;;;16.70;99.90;;;;;;5097185;28;20453;-70
2022/12/31 19:28:56;;;;;;;9.80;8.83;;;16.80;99.90;;;;;;5096920;28;20453;-65
2022/12/31 19:31:23;;;;;;;7.53;6.93;;;16.80;99.90;;;;;;5097043;28;20437;-65
2022/12/31 19:33:51;;;;;;;7.53;7.00;;;16.80;99.90;;;;;;5100853;28;20963;-64
2022/12/31 19:36:20;;;;;;;8.53;7.83;;;16.70;99.90;;;;;;5113664;28;20449;-64
2022/12/31 19:38:47;;;;;;;22.63;16.10;;;16.80;99.90;;;;;;5106345;28;20486;-65
2022/12/31 19:41:16;;;;;;;38.50;34.50;;;16.80;99.90;;;;;;5096290;28;20542;-65
2022/12/31 19:43:42;;;;;;;15.77;14.20;;;16.80;99.90;;;;;;5096204;28;20445;-65
2022/12/31 19:46:12;;;;;;;29.13;26.13;;;16.90;99.90;;;;;;5096583;28;20449;-65
2022/12/31 19:48:39;;;;;;;68.93;62.03;;;16.80;99.90;;;;;;5096567;28;20505;-65
2022/12/31 19:51:10;;;;;;;96.70;88.10;;;16.80;99.90;;;;;;5096080;28;20469;-66
2022/12/31 19:53:36;;;;;;;56.53;44.57;;;16.80;99.90;;;;;;5096401;28;20461;-65
2022/12/31 19:56:04;;;;;;;20.30;16.10;;;16.80;99.90;;;;;;5095948;28;20526;-65
2022/12/31 19:58:31;;;;;;;22.77;19.77;;;16.80;99.90;;;;;;5096006;28;20453;-65
2022/12/31 20:00:59;;;;;;;36.40;31.17;;;16.70;99.90;;;;;;5095828;28;20481;-66
2022/12/31 20:03:26;;;;;;;26.47;23.67;;;16.80;99.90;;;;;;5095715;28;20449;-65
2022/12/31 20:06:01;;;;;;;141.50;114.77;;;16.80;99.90;;;;;;5095731;28;20523;-65
2022/12/31 20:08:29;;;;;;;93.53;84.87;;;16.70;99.90;;;;;;5095497;28;20433;-65
2022/12/31 20:10:57;;;;;;;130.47;116.20;;;16.80;99.90;;;;;;5095453;28;20531;-65
2022/12/31 20:13:25;;;;;;;107.03;96.23;;;16.80;99.90;;;;;;5095817;28;20457;-65
2022/12/31 20:15:51;;;;;;;83.20;67.57;;;16.80;99.90;;;;;;5095845;28;20506;-65
2022/12/31 20:18:19;;;;;;;63.97;49.07;;;16.80;99.90;;;;;;5096600;28;20457;-66
2022/12/31 20:20:49;;;;;;;181.33;162.60;;;16.90;99.90;;;;;;5099068;28;20564;-65
2022/12/31 20:23:16;;;;;;;447.30;383.77;;;16.90;99.90;;;;;;5098886;28;20459;-66
2022/12/31 20:25:44;;;;;;;51.63;46.77;;;16.90;99.90;;;;;;5097685;28;20440;-65
2022/12/31 20:28:10;;;;;;;15.17;13.53;;;16.90;99.90;;;;;;5096224;28;20452;-67
2022/12/31 20:30:38;;;;;;;15.20;13.80;;;16.80;99.90;;;;;;5095406;28;20522;-65
2022/12/31 20:33:04;;;;;;;20.37;18.27;;;16.80;99.90;;;;;;5095683;28;20496;-66
2022/12/31 20:35:31;;;;;;;11.23;10.13;;;16.70;99.90;;;;;;5095043;28;20529;-66
2022/12/31 20:37:58;;;;;;;12.23;11.10;;;16.70;99.90;;;;;;5095378;28;20452;-66
2022/12/31 20:40:24;;;;;;;18.13;16.53;;;16.70;99.90;;;;;;5095620;28;20481;-65
2022/12/31 20:42:52;;;;;;;12.47;11.13;;;16.50;99.90;;;;;;5096868;28;20434;-67
2022/12/31 20:45:19;;;;;;;10.50;9.47;;;16.60;99.90;;;;;;5095879;28;20445;-67
2022/12/31 20:47:45;;;;;;;9.90;8.90;;;16.50;99.90;;;;;;5095250;28;20478;-66
2022/12/31 20:50:12;;;;;;;16.20;9.40;;;16.50;99.90;;;;;;5095395;28;20469;-66
2022/12/31 20:52:39;;;;;;;9.93;9.13;;;16.60;99.90;;;;;;5095418;28;20858;-67
2022/12/31 20:55:06;;;;;;;10.37;9.47;;;16.60;99.90;;;;;;5095128;28;20473;-66
2022/12/31 20:57:33;;;;;;;11.00;10.00;;;16.50;99.90;;;;;;5095245;28;20448;-67
2022/12/31 21:00:01;;;;;;;12.83;9.10;;;16.50;99.90;;;;;;5095205;28;20597;-66
2022/12/31 21:02:28;;;;;;;10.10;9.20;;;16.50;99.90;;;;;;5095159;28;20453;-67
2022/12/31 21:04:54;;;;;;;27.53;25.20;;;16.50;99.90;;;;;;5094480;28;21003;-65
2022/12/31 21:07:21;;;;;;;19.47;17.67;;;16.50;99.90;;;;;;5094904;28;20448;-64
2022/12/31 21:09:48;;;;;;;11.50;10.30;;;16.60;99.90;;;;;;5095858;28;20547;-66
2022/12/31 21:14:58;;;;;;;11.10;10.20;;;16.50;99.90;;;;;;5096504;28;20452;-65
2022/12/31 21:17:26;;;;;;;12.53;9.87;;;16.60;99.90;;;;;;5100559;28;20453;-66
2022/12/31 21:19:53;;;;;;;10.00;9.20;;;16.50;99.90;;;;;;5101734;28;20469;-66
2022/12/31 21:22:21;;;;;;;11.40;10.20;;;16.50;99.90;;;;;;5098741;28;20453;-66
2022/12/31 21:24:48;;;;;;;15.70;13.17;;;16.40;99.90;;;;;;5098607;28;20540;-67
2022/12/31 21:27:15;;;;;;;17.33;15.53;;;16.30;99.90;;;;;;5097648;28;20495;-66
2022/12/31 21:29:41;;;;;;;17.57;15.77;;;16.30;99.90;;;;;;5096852;28;20518;-64
2022/12/31 21:32:08;;;;;;;16.87;15.13;;;16.20;99.90;;;;;;5097445;28;20475;-66
2022/12/31 21:34:36;;;;;;;17.40;15.80;;;16.20;99.90;;;;;;5100682;28;20472;-66
2022/12/31 21:37:03;;;;;;;15.20;13.70;;;16.20;99.90;;;;;;5098691;28;20450;-64
2022/12/31 21:39:30;;;;;;;12.30;11.00;;;16.10;99.90;;;;;;5101041;28;20469;-66
2022/12/31 21:41:56;;;;;;;12.57;11.33;;;16.10;99.90;;;;;;5101411;28;20452;-65
2022/12/31 21:44:24;;;;;;;12.37;10.03;;;16.00;99.90;;;;;;5099926;28;20491;-64
2022/12/31 21:46:55;;;;;;;11.57;10.37;;;16.00;99.90;;;;;;5099631;28;20457;-66
2022/12/31 21:49:22;;;;;;;10.63;9.63;;;16.00;99.90;;;;;;5097714;28;20532;-65
2022/12/31 21:57:17;;;;;;;13.70;11.50;;;16.00;99.90;;;;;;5096489;28;20413;-65
2022/12/31 22:05:12;;;;;;;14.10;12.53;;;15.70;99.90;;;;;;5096265;28;20479;-66
2022/12/31 22:07:41;;;;;;;15.03;13.50;;;15.70;99.90;;;;;;5096967;28;20948;-66
2022/12/31 22:10:08;;;;;;;16.77;15.00;;;15.60;99.90;;;;;;5095823;28;20991;-65
2022/12/31 22:12:35;;;;;;;14.70;13.20;;;15.50;99.90;;;;;;5095813;28;20475;-65
2022/12/31 22:15:01;;;;;;;13.50;12.13;;;15.40;99.90;;;;;;5095556;28;20469;-65
2022/12/31 22:17:28;;;;;;;14.70;13.40;;;15.30;99.90;;;;;;5096329;28;20453;-65
2022/12/31 22:19:55;;;;;;;12.83;11.63;;;15.30;99.90;;;;;;5096858;28;20533;-65
2022/12/31 22:22:21;;;;;;;13.07;11.60;;;15.30;99.90;;;;;;5100446;28;20532;-66
2022/12/31 22:24:49;;;;;;;10.90;9.80;;;15.30;99.90;;;;;;5100049;28;20460;-65
2022/12/31 22:27:16;;;;;;;10.33;9.30;;;15.40;99.90;;;;;;5100036;28;20847;-65
2022/12/31 22:29:42;;;;;;;11.80;10.60;;;15.40;99.90;;;;;;5099916;28;20469;-65
2022/12/31 22:32:09;;;;;;;10.27;9.13;;;15.40;99.90;;;;;;5101098;28;20460;-65
2022/12/31 22:34:36;;;;;;;10.97;9.97;;;15.40;99.90;;;;;;5108076;28;20508;-64
2022/12/31 22:37:02;;;;;;;11.60;9.57;;;15.40;99.90;;;;;;5115388;28;20475;-65
2022/12/31 22:39:29;;;;;;;9.40;8.60;;;15.40;99.90;;;;;;5114147;28;20461;-65
2022/12/31 22:41:57;;;;;;;11.17;10.07;;;15.50;99.90;;;;;;5105804;28;20451;-65
2022/12/31 22:44:24;;;;;;;9.93;8.60;;;15.50;99.90;;;;;;5105185;28;20445;-66
2022/12/31 22:46:50;;;;;;;53.33;47.73;;;15.50;99.90;;;;;;5103820;28;20429;-66
2022/12/31 22:49:18;;;;;;;56.63;51.20;;;15.60;99.90;;;;;;5101759;28;20503;-65
2022/12/31 22:51:45;;;;;;;19.03;17.17;;;15.60;99.90;;;;;;5099846;28;20490;-66
2022/12/31 22:54:13;;;;;;;39.57;35.97;;;15.60;99.90;;;;;;5099104;28;20482;-65
2022/12/31 22:56:39;;;;;;;20.67;18.67;;;15.60;99.90;;;;;;5098717;28;20843;-64
2022/12/31 22:59:08;;;;;;;22.47;20.37;;;15.50;99.90;;;;;;5098469;28;20449;-64
2022/12/31 23:01:34;;;;;;;36.70;30.23;;;15.50;99.90;;;;;;5104193;28;20449;-64
2022/12/31 23:04:01;;;;;;;99.50;89.37;;;15.40;99.90;;;;;;5103888;28;20445;-66
2022/12/31 23:06:28;;;;;;;47.97;42.33;;;15.40;99.90;;;;;;5102809;28;20445;-66
2022/12/31 23:11:41;;;;;;;80.70;71.57;;;15.40;99.90;;;;;;5098387;28;20409;-65
2022/12/31 23:25:11;;;;;;;129.03;106.73;;;15.20;99.90;;;;;;5098051;28;20877;-65
2022/12/31 23:27:38;;;;;;;123.53;102.97;;;15.10;99.90;;;;;;5099001;28;20454;-64
2022/12/31 23:30:07;;;;;;;124.10;105.90;;;15.00;99.90;;;;;;5096715;28;20526;-65
2022/12/31 23:32:34;;;;;;;120.73;101.90;;;14.90;99.90;;;;;;5095949;28;21017;-64
2022/12/31 23:35:00;;;;;;;115.80;97.67;;;14.80;99.90;;;;;;5096280;28;20854;-63
2022/12/31 23:37:27;;;;;;;132.37;108.57;;;14.80;99.90;;;;;;5097138;28;20502;-64
2022/12/31 23:39:54;;;;;;;144.47;118.00;;;14.70;99.90;;;;;;5097036;28;20474;-64
2022/12/31 23:42:20;;;;;;;115.57;101.90;;;14.70;99.90;;;;;;5097715;28;20437;-64
2022/12/31 23:44:47;;;;;;;112.83;98.27;;;14.70;99.90;;;;;;5096067;28;20837;-64
2022/12/31 23:47:15;;;;;;;118.43;98.47;;;14.70;99.90;;;;;;5096595;28;20437;-64
2022/12/31 23:49:42;;;;;;;121.07;98.70;;;14.70;99.90;;;;;;5097632;28;20474;-65
2022/12/31 23:52:08;;;;;;;120.37;101.13;;;14.70;99.90;;;;;;5096988;28;20452;-64
2022/12/31 23:54:35;;;;;;;133.40;109.63;;;14.70;99.90;;;;;;5096297;28;20454;-65
2022/12/31 23:57:02;;;;;;;129.47;115.13;;;14.70;99.90;;;;;;5096510;28;20449;-64
2022/12/31 23:59:29;;;;;;;135.77;115.67;;;14.70;99.90;;;;;;5095893;28;20519;-63
